Enter the Airport ICAO Code

Search by Airport or City

Current Weather

GCRR | Lanzarote Airport

Lanzarote, Canary Islands, Spain

Last Update 5 Minutes Ago

Partly Cloudy Sky

Temperature of 22 ºC

Moderate to Strong Winds from North

Temperature

22 ºC

Dew Point Temperature

13 ºC

Relative Humidity

56.84 %

Wind Direction

North (360º, Ranging from 320º to 030º)

Wind Velocity

30 km/h (16 kt)

Gusts

None

Visibility

Greater than 10 Kilometers

Sea Level Pressure

1021 hPa (Hectopascals)

Layers of Clouds

5% to 30% of Sky Covered from 1067 mts (3500 ft) Above Ground Level.

30% to 60% of Sky Covered from 1372 mts (4500 ft) Above Ground Level.

METAR GCRR 191130Z 36016KT 320V030 9999 FEW035 SCT045 22/13 Q1021

Weather Forecast

GCRR | Lanzarote Airport

Lanzarote, Canary Islands, Spain

Forecast valid for the next 21 Hours

From now on it is expected:

Mostly Cloudy Sky

Moderate to Strong Winds from North

From now on it is expected 7 hours with intermittent periods of:

Moderate to Strong Winds from North with Gusts

In 8 to 10 hours it is expected the begining of:

Moderate Winds from North

Maximum Temperature

25 ºC in 2 Hours

Minimum Temperature

18 ºC in 18 Hours

TAF GCRR 190800Z 1909/2009 01020KT 9999 BKN035 TX25/1914Z TN18/2006Z PROB40 TEMPO 1911/1919 01018G28KT BECMG 1920/1922 02010KT